createdAt,value
2024-05-09T00:06:37.361Z,10.90
2024-05-09T00:16:42.181Z,10.79
2024-05-09T00:26:49.612Z,10.79
2024-05-09T00:36:54.351Z,10.76
2024-05-09T00:47:02.433Z,10.86
2024-05-09T00:57:08.227Z,10.83
2024-05-09T01:07:16.144Z,10.73
2024-05-09T01:17:21.005Z,10.67
2024-05-09T01:27:28.408Z,10.73
2024-05-09T01:37:33.106Z,10.77
2024-05-09T01:47:40.613Z,10.69
2024-05-09T01:57:45.478Z,10.76
2024-05-09T02:07:52.915Z,10.91
2024-05-09T02:17:57.841Z,10.85
2024-05-09T02:28:05.340Z,10.37
2024-05-09T02:38:11.958Z,10.37
2024-05-09T02:48:19.745Z,9.93
2024-05-09T02:58:24.571Z,10.25
2024-05-09T03:08:32.050Z,9.74
2024-05-09T03:18:37.007Z,9.54
2024-05-09T03:28:44.849Z,9.86
2024-05-09T03:38:50.867Z,9.79
2024-05-09T03:48:58.267Z,9.87
2024-05-09T03:59:03.097Z,9.04
2024-05-09T04:09:10.515Z,9.55
2024-05-09T04:19:15.478Z,9.60
2024-05-09T04:29:23.010Z,9.82
2024-05-09T04:39:27.767Z,10.04
2024-05-09T04:49:35.303Z,10.48
2024-05-09T04:59:40.229Z,10.99
2024-05-09T05:09:47.669Z,11.34
2024-05-09T05:19:52.656Z,11.70
2024-05-09T05:30:00.308Z,12.44
2024-05-09T05:40:05.759Z,12.61
2024-05-09T05:50:23.709Z,12.97
2024-05-09T06:00:38.766Z,13.12
2024-05-09T06:10:47.796Z,13.75
2024-05-09T06:20:52.817Z,13.92
2024-05-09T06:31:00.218Z,14.26
2024-05-09T06:41:05.949Z,15.04
2024-05-09T06:51:13.449Z,16.02
2024-05-09T07:01:18.390Z,16.48
2024-05-09T07:11:26.119Z,17.32
2024-05-09T07:21:32.318Z,16.99
2024-05-09T07:31:39.740Z,17.48
2024-05-09T07:41:44.706Z,17.53
2024-05-09T07:53:21.085Z,18.16
2024-05-09T08:02:17.617Z,18.12
2024-05-09T08:12:25.083Z,18.90
2024-05-09T08:22:32.265Z,19.81
2024-05-09T08:32:39.953Z,20.34
2024-05-09T08:42:50.068Z,20.16
2024-05-09T08:52:57.515Z,20.54
2024-05-09T09:03:02.872Z,19.93
2024-05-09T09:13:11.348Z,21.09
2024-05-09T09:23:16.327Z,21.64
2024-05-09T09:33:23.694Z,21.82
2024-05-09T09:43:29.222Z,21.96
2024-05-09T09:53:38.459Z,21.45
2024-05-09T10:03:45.501Z,22.01
2024-05-09T10:13:55.032Z,23.03
2024-05-09T10:24:00.310Z,22.50
2024-05-09T10:34:10.792Z,22.88
2024-05-09T10:44:18.617Z,23.01
2024-05-09T10:54:26.001Z,23.96
2024-05-09T11:04:30.866Z,22.69
2024-05-09T11:14:38.315Z,22.72
2024-05-09T11:24:43.237Z,21.99
2024-05-09T11:34:50.562Z,21.73
2024-05-09T11:44:55.329Z,23.65
2024-05-09T11:55:02.887Z,24.44
2024-05-09T12:05:08.249Z,25.75
2024-05-09T12:15:15.919Z,26.53
2024-05-09T12:25:20.697Z,27.00
2024-05-09T12:35:28.516Z,27.61
2024-05-09T12:45:33.700Z,28.28
2024-05-09T12:55:48.662Z,28.31
2024-05-09T13:06:01.310Z,25.20
2024-05-09T13:16:09.160Z,27.00
2024-05-09T13:26:13.927Z,28.28
2024-05-09T13:36:21.330Z,24.99
2024-05-09T13:46:26.136Z,26.79
2024-05-09T13:56:33.566Z,28.94
2024-05-09T14:06:38.355Z,28.30
2024-05-09T14:16:46.156Z,28.41
2024-05-09T14:26:50.960Z,27.03
2024-05-09T14:37:04.882Z,28.32
2024-05-09T14:47:10.119Z,28.79
2024-05-09T14:57:17.607Z,29.05
2024-05-09T15:07:22.425Z,26.78
2024-05-09T15:17:30.845Z,24.93
2024-05-09T15:27:35.643Z,28.02
2024-05-09T15:37:43.489Z,31.38
2024-05-09T15:47:48.390Z,34.86
2024-05-09T15:57:55.831Z,34.82
2024-05-09T16:08:00.548Z,35.43
2024-05-09T16:18:08.278Z,35.47
2024-05-09T16:28:13.252Z,34.71
2024-05-09T16:38:20.878Z,33.37
2024-05-09T16:48:25.700Z,34.75
2024-05-09T16:58:33.262Z,30.45
2024-05-09T17:08:38.131Z,33.02
2024-05-09T17:18:54.020Z,34.99
2024-05-09T17:28:59.615Z,33.70
2024-05-09T17:39:07.062Z,35.18
2024-05-09T17:49:11.890Z,32.68
2024-05-09T17:59:19.265Z,33.63
2024-05-09T18:09:23.942Z,32.39
2024-05-09T18:19:31.333Z,27.06
2024-05-09T18:29:36.126Z,25.08
2024-05-09T18:39:43.539Z,23.59
2024-05-09T18:49:48.448Z,22.35
2024-05-09T18:59:56.250Z,21.53
2024-05-09T19:10:01.566Z,20.61
2024-05-09T19:20:20.757Z,20.32
2024-05-09T19:30:38.941Z,19.66
2024-05-09T19:40:49.442Z,19.29
2024-05-09T19:50:55.513Z,18.98
2024-05-09T20:01:03.097Z,18.54
2024-05-09T20:11:08.247Z,18.29
2024-05-09T20:21:15.800Z,18.06
2024-05-09T20:31:25.035Z,18.06
2024-05-09T20:41:35.156Z,17.83
2024-05-09T20:51:41.245Z,17.41
2024-05-09T21:01:49.440Z,17.26
2024-05-09T21:11:54.389Z,17.09
2024-05-09T21:22:01.854Z,17.12
2024-05-09T21:32:06.783Z,17.04
2024-05-09T21:42:14.122Z,16.73
2024-05-09T21:52:19.383Z,16.57
2024-05-09T22:02:26.858Z,16.14
2024-05-09T22:12:31.616Z,15.52
2024-05-09T22:22:39.125Z,15.51
2024-05-09T22:32:43.875Z,15.39
2024-05-09T22:42:51.255Z,15.15
2024-05-09T22:52:55.975Z,14.19
2024-05-09T23:03:03.927Z,13.93
2024-05-09T23:13:09.234Z,13.96
2024-05-09T23:23:16.727Z,13.21
2024-05-09T23:33:21.490Z,13.07
2024-05-09T23:43:28.993Z,13.32
2024-05-09T23:53:33.793Z,13.28
